sensor_id;sensor_type;location;lat;lon;timestamp;P1;durP1;ratioP1;P2;durP2;ratioP2
56429;SDS011;42332;52.136;20.666;2023-11-19T00:01:22;30.30;;;10.80;;
56429;SDS011;42332;52.136;20.666;2023-11-19T00:03:48;45.15;;;13.52;;
56429;SDS011;42332;52.136;20.666;2023-11-19T00:06:14;35.97;;;14.40;;
56429;SDS011;42332;52.136;20.666;2023-11-19T00:08:40;32.30;;;13.38;;
56429;SDS011;42332;52.136;20.666;2023-11-19T00:11:05;31.80;;;14.27;;
56429;SDS011;42332;52.136;20.666;2023-11-19T00:13:31;30.63;;;12.40;;
56429;SDS011;42332;52.136;20.666;2023-11-19T00:15:56;41.03;;;14.88;;
56429;SDS011;42332;52.136;20.666;2023-11-19T00:18:22;30.10;;;12.85;;
56429;SDS011;42332;52.136;20.666;2023-11-19T00:20:50;25.52;;;13.10;;
56429;SDS011;42332;52.136;20.666;2023-11-19T00:23:16;31.02;;;13.27;;
56429;SDS011;42332;52.136;20.666;2023-11-19T00:25:42;42.08;;;14.10;;
56429;SDS011;42332;52.136;20.666;2023-11-19T00:28:10;35.33;;;13.38;;
56429;SDS011;42332;52.136;20.666;2023-11-19T00:30:35;38.90;;;14.48;;
56429;SDS011;42332;52.136;20.666;2023-11-19T00:33:00;29.40;;;11.93;;
56429;SDS011;42332;52.136;20.666;2023-11-19T00:35:26;41.20;;;14.52;;
56429;SDS011;42332;52.136;20.666;2023-11-19T00:37:51;36.05;;;13.35;;
56429;SDS011;42332;52.136;20.666;2023-11-19T00:40:18;46.03;;;13.60;;
56429;SDS011;42332;52.136;20.666;2023-11-19T00:42:46;35.28;;;14.68;;
56429;SDS011;42332;52.136;20.666;2023-11-19T00:45:12;37.95;;;14.75;;
56429;SDS011;42332;52.136;20.666;2023-11-19T00:47:38;38.42;;;12.93;;
56429;SDS011;42332;52.136;20.666;2023-11-19T00:50:03;36.88;;;13.10;;
56429;SDS011;42332;52.136;20.666;2023-11-19T00:52:29;33.47;;;13.35;;
56429;SDS011;42332;52.136;20.666;2023-11-19T00:54:54;31.00;;;13.63;;
56429;SDS011;42332;52.136;20.666;2023-11-19T00:57:19;29.83;;;12.70;;
56429;SDS011;42332;52.136;20.666;2023-11-19T00:59:44;30.67;;;12.88;;
56429;SDS011;42332;52.136;20.666;2023-11-19T01:02:10;42.80;;;12.88;;
56429;SDS011;42332;52.136;20.666;2023-11-19T01:04:35;43.28;;;13.60;;
56429;SDS011;42332;52.136;20.666;2023-11-19T01:07:02;41.17;;;14.88;;
56429;SDS011;42332;52.136;20.666;2023-11-19T01:09:29;36.80;;;14.55;;
56429;SDS011;42332;52.136;20.666;2023-11-19T01:11:54;32.45;;;13.30;;
56429;SDS011;42332;52.136;20.666;2023-11-19T01:14:20;40.17;;;14.95;;
56429;SDS011;42332;52.136;20.666;2023-11-19T01:16:45;33.67;;;14.10;;
56429;SDS011;42332;52.136;20.666;2023-11-19T01:19:11;51.60;;;14.00;;
56429;SDS011;42332;52.136;20.666;2023-11-19T01:21:36;46.00;;;14.80;;
56429;SDS011;42332;52.136;20.666;2023-11-19T01:24:01;40.97;;;14.70;;
56429;SDS011;42332;52.136;20.666;2023-11-19T01:26:29;38.80;;;14.02;;
56429;SDS011;42332;52.136;20.666;2023-11-19T01:28:54;43.17;;;17.02;;
56429;SDS011;42332;52.136;20.666;2023-11-19T01:31:19;40.53;;;15.88;;
56429;SDS011;42332;52.136;20.666;2023-11-19T01:33:45;36.25;;;13.35;;
56429;SDS011;42332;52.136;20.666;2023-11-19T01:36:14;32.85;;;13.73;;
56429;SDS011;42332;52.136;20.666;2023-11-19T01:38:40;38.53;;;14.82;;
56429;SDS011;42332;52.136;20.666;2023-11-19T01:41:05;32.25;;;12.50;;
56429;SDS011;42332;52.136;20.666;2023-11-19T01:43:34;40.53;;;12.82;;
56429;SDS011;42332;52.136;20.666;2023-11-19T01:46:00;47.15;;;15.82;;
56429;SDS011;42332;52.136;20.666;2023-11-19T01:48:26;37.83;;;12.82;;
56429;SDS011;42332;52.136;20.666;2023-11-19T01:50:52;46.65;;;15.23;;
56429;SDS011;42332;52.136;20.666;2023-11-19T01:53:18;39.72;;;13.25;;
56429;SDS011;42332;52.136;20.666;2023-11-19T01:55:43;38.13;;;14.70;;
56429;SDS011;42332;52.136;20.666;2023-11-19T01:58:09;42.58;;;13.82;;
56429;SDS011;42332;52.136;20.666;2023-11-19T02:00:34;39.20;;;14.43;;
56429;SDS011;42332;52.136;20.666;2023-11-19T02:03:00;41.35;;;16.17;;
56429;SDS011;42332;52.136;20.666;2023-11-19T02:05:25;35.65;;;14.40;;
56429;SDS011;42332;52.136;20.666;2023-11-19T02:07:51;41.00;;;16.30;;
56429;SDS011;42332;52.136;20.666;2023-11-19T02:10:17;37.83;;;14.88;;
56429;SDS011;42332;52.136;20.666;2023-11-19T02:12:44;32.08;;;14.00;;
56429;SDS011;42332;52.136;20.666;2023-11-19T02:15:10;41.58;;;14.02;;
56429;SDS011;42332;52.136;20.666;2023-11-19T02:17:35;55.63;;;17.90;;
56429;SDS011;42332;52.136;20.666;2023-11-19T02:20:03;46.67;;;17.42;;
56429;SDS011;42332;52.136;20.666;2023-11-19T02:22:31;43.38;;;14.73;;
56429;SDS011;42332;52.136;20.666;2023-11-19T02:24:59;38.90;;;15.23;;
56429;SDS011;42332;52.136;20.666;2023-11-19T02:30:05;41.35;;;17.45;;
56429;SDS011;42332;52.136;20.666;2023-11-19T02:32:33;42.65;;;15.00;;
56429;SDS011;42332;52.136;20.666;2023-11-19T02:34:59;40.33;;;14.00;;
56429;SDS011;42332;52.136;20.666;2023-11-19T02:37:24;55.88;;;16.02;;
56429;SDS011;42332;52.136;20.666;2023-11-19T02:39:49;47.33;;;16.85;;
56429;SDS011;42332;52.136;20.666;2023-11-19T02:42:15;34.28;;;15.02;;
56429;SDS011;42332;52.136;20.666;2023-11-19T02:44:43;36.30;;;13.68;;
56429;SDS011;42332;52.136;20.666;2023-11-19T02:47:09;44.50;;;16.55;;
56429;SDS011;42332;52.136;20.666;2023-11-19T02:49:34;44.30;;;15.65;;
56429;SDS011;42332;52.136;20.666;2023-11-19T02:52:01;38.00;;;16.77;;
56429;SDS011;42332;52.136;20.666;2023-11-19T02:54:26;39.88;;;14.73;;
56429;SDS011;42332;52.136;20.666;2023-11-19T02:56:52;40.75;;;15.30;;
56429;SDS011;42332;52.136;20.666;2023-11-19T02:59:24;39.85;;;13.93;;
56429;SDS011;42332;52.136;20.666;2023-11-19T03:01:53;41.47;;;14.55;;
56429;SDS011;42332;52.136;20.666;2023-11-19T03:04:19;44.40;;;14.23;;
56429;SDS011;42332;52.136;20.666;2023-11-19T03:06:48;41.00;;;14.35;;
56429;SDS011;42332;52.136;20.666;2023-11-19T03:09:13;29.90;;;14.45;;
56429;SDS011;42332;52.136;20.666;2023-11-19T03:11:39;32.15;;;14.35;;
56429;SDS011;42332;52.136;20.666;2023-11-19T03:14:04;34.70;;;16.52;;
56429;SDS011;42332;52.136;20.666;2023-11-19T03:16:29;40.97;;;17.25;;
56429;SDS011;42332;52.136;20.666;2023-11-19T03:18:55;42.55;;;14.82;;
56429;SDS011;42332;52.136;20.666;2023-11-19T03:21:30;40.90;;;14.95;;
56429;SDS011;42332;52.136;20.666;2023-11-19T03:23:56;36.13;;;12.98;;
56429;SDS011;42332;52.136;20.666;2023-11-19T03:26:23;44.38;;;14.57;;
56429;SDS011;42332;52.136;20.666;2023-11-19T03:28:48;36.25;;;14.57;;
56429;SDS011;42332;52.136;20.666;2023-11-19T03:31:13;33.75;;;15.85;;
56429;SDS011;42332;52.136;20.666;2023-11-19T03:33:39;39.05;;;13.73;;
56429;SDS011;42332;52.136;20.666;2023-11-19T03:36:04;31.77;;;12.55;;
56429;SDS011;42332;52.136;20.666;2023-11-19T03:38:30;36.13;;;13.27;;
56429;SDS011;42332;52.136;20.666;2023-11-19T03:40:56;31.80;;;12.10;;
56429;SDS011;42332;52.136;20.666;2023-11-19T03:43:21;36.63;;;14.30;;
56429;SDS011;42332;52.136;20.666;2023-11-19T03:45:46;39.97;;;13.98;;
56429;SDS011;42332;52.136;20.666;2023-11-19T03:48:11;42.88;;;13.95;;
56429;SDS011;42332;52.136;20.666;2023-11-19T03:50:37;33.40;;;11.20;;
56429;SDS011;42332;52.136;20.666;2023-11-19T03:53:02;45.45;;;15.10;;
56429;SDS011;42332;52.136;20.666;2023-11-19T03:55:28;40.03;;;14.80;;
56429;SDS011;42332;52.136;20.666;2023-11-19T03:57:54;36.10;;;11.80;;
56429;SDS011;42332;52.136;20.666;2023-11-19T04:00:19;34.35;;;13.20;;
56429;SDS011;42332;52.136;20.666;2023-11-19T04:02:46;38.40;;;13.10;;
56429;SDS011;42332;52.136;20.666;2023-11-19T04:05:12;36.08;;;13.55;;
56429;SDS011;42332;52.136;20.666;2023-11-19T04:07:37;39.83;;;13.10;;
56429;SDS011;42332;52.136;20.666;2023-11-19T04:10:03;40.75;;;14.48;;
56429;SDS011;42332;52.136;20.666;2023-11-19T04:12:29;43.63;;;12.40;;
56429;SDS011;42332;52.136;20.666;2023-11-19T04:14:54;47.50;;;14.60;;
56429;SDS011;42332;52.136;20.666;2023-11-19T04:17:19;40.45;;;13.98;;
56429;SDS011;42332;52.136;20.666;2023-11-19T04:19:45;39.47;;;12.93;;
56429;SDS011;42332;52.136;20.666;2023-11-19T04:22:10;41.53;;;13.30;;
56429;SDS011;42332;52.136;20.666;2023-11-19T04:24:35;36.42;;;12.95;;
56429;SDS011;42332;52.136;20.666;2023-11-19T04:27:01;45.95;;;14.57;;
56429;SDS011;42332;52.136;20.666;2023-11-19T04:29:26;33.28;;;12.73;;
56429;SDS011;42332;52.136;20.666;2023-11-19T04:31:52;41.67;;;15.27;;
56429;SDS011;42332;52.136;20.666;2023-11-19T04:34:17;38.33;;;11.98;;
56429;SDS011;42332;52.136;20.666;2023-11-19T04:36:42;34.38;;;11.48;;
56429;SDS011;42332;52.136;20.666;2023-11-19T04:39:08;30.33;;;12.95;;
56429;SDS011;42332;52.136;20.666;2023-11-19T04:41:50;41.50;;;13.52;;
56429;SDS011;42332;52.136;20.666;2023-11-19T04:44:19;34.80;;;11.18;;
56429;SDS011;42332;52.136;20.666;2023-11-19T04:46:45;40.15;;;13.60;;
56429;SDS011;42332;52.136;20.666;2023-11-19T04:49:10;27.00;;;12.38;;
56429;SDS011;42332;52.136;20.666;2023-11-19T04:51:39;31.27;;;11.77;;
56429;SDS011;42332;52.136;20.666;2023-11-19T04:54:05;40.20;;;12.77;;
56429;SDS011;42332;52.136;20.666;2023-11-19T04:56:31;31.05;;;11.32;;
56429;SDS011;42332;52.136;20.666;2023-11-19T04:58:57;47.85;;;17.90;;
56429;SDS011;42332;52.136;20.666;2023-11-19T05:01:22;36.00;;;13.32;;
56429;SDS011;42332;52.136;20.666;2023-11-19T05:03:47;31.02;;;12.80;;
56429;SDS011;42332;52.136;20.666;2023-11-19T05:06:13;32.13;;;13.38;;
56429;SDS011;42332;52.136;20.666;2023-11-19T05:08:38;31.67;;;10.85;;
56429;SDS011;42332;52.136;20.666;2023-11-19T05:11:03;37.97;;;12.45;;
56429;SDS011;42332;52.136;20.666;2023-11-19T05:13:30;29.27;;;13.48;;
56429;SDS011;42332;52.136;20.666;2023-11-19T05:15:56;32.42;;;11.98;;
56429;SDS011;42332;52.136;20.666;2023-11-19T05:18:21;27.15;;;10.98;;
56429;SDS011;42332;52.136;20.666;2023-11-19T05:20:46;28.90;;;10.88;;
56429;SDS011;42332;52.136;20.666;2023-11-19T05:23:12;26.83;;;10.85;;
56429;SDS011;42332;52.136;20.666;2023-11-19T05:25:37;33.15;;;11.68;;
56429;SDS011;42332;52.136;20.666;2023-11-19T05:28:02;34.58;;;13.43;;
56429;SDS011;42332;52.136;20.666;2023-11-19T05:30:28;29.27;;;11.05;;
56429;SDS011;42332;52.136;20.666;2023-11-19T05:32:53;33.35;;;12.70;;
56429;SDS011;42332;52.136;20.666;2023-11-19T05:35:18;25.85;;;10.68;;
56429;SDS011;42332;52.136;20.666;2023-11-19T05:37:44;29.77;;;11.15;;
56429;SDS011;42332;52.136;20.666;2023-11-19T05:40:09;29.48;;;11.32;;
56429;SDS011;42332;52.136;20.666;2023-11-19T05:42:39;32.17;;;11.05;;
56429;SDS011;42332;52.136;20.666;2023-11-19T05:45:05;32.63;;;11.85;;
56429;SDS011;42332;52.136;20.666;2023-11-19T05:47:32;27.17;;;11.15;;
56429;SDS011;42332;52.136;20.666;2023-11-19T05:49:58;27.88;;;9.63;;
56429;SDS011;42332;52.136;20.666;2023-11-19T05:52:23;30.77;;;10.30;;
56429;SDS011;42332;52.136;20.666;2023-11-19T05:54:49;37.10;;;12.85;;
56429;SDS011;42332;52.136;20.666;2023-11-19T05:57:16;32.80;;;13.38;;
56429;SDS011;42332;52.136;20.666;2023-11-19T05:59:47;29.55;;;11.23;;
56429;SDS011;42332;52.136;20.666;2023-11-19T06:02:13;22.10;;;9.98;;
56429;SDS011;42332;52.136;20.666;2023-11-19T06:04:38;36.53;;;11.23;;
56429;SDS011;42332;52.136;20.666;2023-11-19T06:07:04;30.20;;;10.90;;
56429;SDS011;42332;52.136;20.666;2023-11-19T06:09:30;25.55;;;9.77;;
56429;SDS011;42332;52.136;20.666;2023-11-19T06:11:57;30.77;;;11.65;;
56429;SDS011;42332;52.136;20.666;2023-11-19T06:14:22;32.42;;;10.85;;
56429;SDS011;42332;52.136;20.666;2023-11-19T06:16:49;20.52;;;9.48;;
56429;SDS011;42332;52.136;20.666;2023-11-19T06:19:16;24.92;;;11.10;;
56429;SDS011;42332;52.136;20.666;2023-11-19T06:21:42;29.88;;;11.60;;
56429;SDS011;42332;52.136;20.666;2023-11-19T06:24:07;25.52;;;9.88;;
56429;SDS011;42332;52.136;20.666;2023-11-19T06:26:33;24.85;;;8.30;;
56429;SDS011;42332;52.136;20.666;2023-11-19T06:28:59;22.20;;;10.15;;
56429;SDS011;42332;52.136;20.666;2023-11-19T06:31:24;28.70;;;9.95;;
56429;SDS011;42332;52.136;20.666;2023-11-19T06:33:50;20.48;;;9.55;;
56429;SDS011;42332;52.136;20.666;2023-11-19T06:36:15;19.92;;;9.80;;
56429;SDS011;42332;52.136;20.666;2023-11-19T06:38:43;47.72;;;14.43;;
56429;SDS011;42332;52.136;20.666;2023-11-19T06:41:08;30.05;;;11.82;;
56429;SDS011;42332;52.136;20.666;2023-11-19T06:43:34;31.00;;;10.27;;
56429;SDS011;42332;52.136;20.666;2023-11-19T06:46:00;29.83;;;9.30;;
56429;SDS011;42332;52.136;20.666;2023-11-19T06:48:25;23.70;;;8.32;;
56429;SDS011;42332;52.136;20.666;2023-11-19T06:50:51;16.75;;;8.38;;
56429;SDS011;42332;52.136;20.666;2023-11-19T06:53:16;24.95;;;7.78;;
56429;SDS011;42332;52.136;20.666;2023-11-19T06:55:41;24.15;;;9.52;;
56429;SDS011;42332;52.136;20.666;2023-11-19T06:58:07;19.77;;;8.10;;
56429;SDS011;42332;52.136;20.666;2023-11-19T07:00:32;19.35;;;8.93;;
56429;SDS011;42332;52.136;20.666;2023-11-19T07:02:58;22.60;;;8.77;;
56429;SDS011;42332;52.136;20.666;2023-11-19T07:05:24;22.52;;;9.40;;
56429;SDS011;42332;52.136;20.666;2023-11-19T07:07:49;15.32;;;7.43;;
56429;SDS011;42332;52.136;20.666;2023-11-19T07:10:15;21.80;;;8.25;;
56429;SDS011;42332;52.136;20.666;2023-11-19T07:12:40;16.17;;;7.65;;
56429;SDS011;42332;52.136;20.666;2023-11-19T07:15:07;18.20;;;7.43;;
56429;SDS011;42332;52.136;20.666;2023-11-19T07:17:33;22.15;;;8.07;;
56429;SDS011;42332;52.136;20.666;2023-11-19T07:20:00;22.10;;;8.27;;
56429;SDS011;42332;52.136;20.666;2023-11-19T07:22:25;18.50;;;7.70;;
56429;SDS011;42332;52.136;20.666;2023-11-19T07:24:51;16.27;;;7.25;;
56429;SDS011;42332;52.136;20.666;2023-11-19T07:27:18;21.27;;;8.80;;
56429;SDS011;42332;52.136;20.666;2023-11-19T07:29:43;19.42;;;8.60;;
56429;SDS011;42332;52.136;20.666;2023-11-19T07:32:09;23.35;;;8.30;;
56429;SDS011;42332;52.136;20.666;2023-11-19T07:34:35;19.48;;;7.65;;
56429;SDS011;42332;52.136;20.666;2023-11-19T07:37:00;20.10;;;7.93;;
56429;SDS011;42332;52.136;20.666;2023-11-19T07:39:27;16.00;;;7.30;;
56429;SDS011;42332;52.136;20.666;2023-11-19T07:41:55;18.33;;;7.25;;
56429;SDS011;42332;52.136;20.666;2023-11-19T07:44:21;17.20;;;6.80;;
56429;SDS011;42332;52.136;20.666;2023-11-19T07:46:46;21.92;;;8.68;;
56429;SDS011;42332;52.136;20.666;2023-11-19T07:49:12;20.58;;;8.43;;
56429;SDS011;42332;52.136;20.666;2023-11-19T07:51:38;19.30;;;9.10;;
56429;SDS011;42332;52.136;20.666;2023-11-19T07:54:04;15.73;;;7.45;;
56429;SDS011;42332;52.136;20.666;2023-11-19T07:56:29;19.23;;;8.23;;
56429;SDS011;42332;52.136;20.666;2023-11-19T07:58:54;20.02;;;7.68;;
56429;SDS011;42332;52.136;20.666;2023-11-19T08:01:20;20.70;;;7.57;;
56429;SDS011;42332;52.136;20.666;2023-11-19T08:03:45;19.52;;;7.68;;
56429;SDS011;42332;52.136;20.666;2023-11-19T08:06:10;21.85;;;8.00;;
56429;SDS011;42332;52.136;20.666;2023-11-19T08:08:36;20.17;;;8.00;;
56429;SDS011;42332;52.136;20.666;2023-11-19T08:11:03;18.70;;;6.80;;
56429;SDS011;42332;52.136;20.666;2023-11-19T08:13:30;16.10;;;6.15;;
56429;SDS011;42332;52.136;20.666;2023-11-19T08:15:56;19.60;;;8.25;;
56429;SDS011;42332;52.136;20.666;2023-11-19T08:18:23;16.45;;;7.10;;
56429;SDS011;42332;52.136;20.666;2023-11-19T08:20:48;25.42;;;7.68;;
56429;SDS011;42332;52.136;20.666;2023-11-19T08:23:17;14.90;;;7.20;;
56429;SDS011;42332;52.136;20.666;2023-11-19T08:25:43;19.45;;;7.93;;
56429;SDS011;42332;52.136;20.666;2023-11-19T08:28:09;18.90;;;7.88;;
56429;SDS011;42332;52.136;20.666;2023-11-19T08:30:34;18.63;;;7.78;;
56429;SDS011;42332;52.136;20.666;2023-11-19T08:33:00;28.35;;;11.05;;
56429;SDS011;42332;52.136;20.666;2023-11-19T08:35:28;21.10;;;9.50;;
56429;SDS011;42332;52.136;20.666;2023-11-19T08:37:53;25.45;;;8.13;;
56429;SDS011;42332;52.136;20.666;2023-11-19T08:40:19;18.25;;;7.97;;
56429;SDS011;42332;52.136;20.666;2023-11-19T08:42:45;15.30;;;7.25;;
56429;SDS011;42332;52.136;20.666;2023-11-19T08:45:10;24.50;;;8.68;;
56429;SDS011;42332;52.136;20.666;2023-11-19T08:47:36;30.80;;;12.52;;
56429;SDS011;42332;52.136;20.666;2023-11-19T08:50:02;32.67;;;14.13;;
56429;SDS011;42332;52.136;20.666;2023-11-19T08:52:29;38.65;;;18.60;;
56429;SDS011;42332;52.136;20.666;2023-11-19T08:54:54;21.35;;;10.30;;
56429;SDS011;42332;52.136;20.666;2023-11-19T08:57:20;26.67;;;11.13;;
56429;SDS011;42332;52.136;20.666;2023-11-19T08:59:45;24.45;;;9.75;;
56429;SDS011;42332;52.136;20.666;2023-11-19T09:02:10;22.88;;;11.68;;
56429;SDS011;42332;52.136;20.666;2023-11-19T09:04:36;36.05;;;17.05;;
56429;SDS011;42332;52.136;20.666;2023-11-19T09:07:02;31.33;;;13.63;;
56429;SDS011;42332;52.136;20.666;2023-11-19T09:09:28;23.48;;;11.10;;
56429;SDS011;42332;52.136;20.666;2023-11-19T09:11:53;23.08;;;10.02;;
56429;SDS011;42332;52.136;20.666;2023-11-19T09:14:19;22.73;;;8.35;;
56429;SDS011;42332;52.136;20.666;2023-11-19T09:16:49;22.83;;;10.50;;
56429;SDS011;42332;52.136;20.666;2023-11-19T09:19:14;21.85;;;9.05;;
56429;SDS011;42332;52.136;20.666;2023-11-19T09:21:39;20.25;;;9.43;;
56429;SDS011;42332;52.136;20.666;2023-11-19T09:24:05;20.52;;;9.13;;
56429;SDS011;42332;52.136;20.666;2023-11-19T09:26:32;21.25;;;10.00;;
56429;SDS011;42332;52.136;20.666;2023-11-19T09:28:57;19.95;;;9.35;;
56429;SDS011;42332;52.136;20.666;2023-11-19T09:31:22;22.38;;;9.82;;
56429;SDS011;42332;52.136;20.666;2023-11-19T09:33:48;27.42;;;9.35;;
56429;SDS011;42332;52.136;20.666;2023-11-19T09:36:13;25.02;;;9.38;;
56429;SDS011;42332;52.136;20.666;2023-11-19T09:38:39;21.55;;;10.13;;
56429;SDS011;42332;52.136;20.666;2023-11-19T09:41:06;24.73;;;9.80;;
56429;SDS011;42332;52.136;20.666;2023-11-19T09:43:34;29.20;;;11.38;;
56429;SDS011;42332;52.136;20.666;2023-11-19T09:46:04;30.42;;;12.73;;
56429;SDS011;42332;52.136;20.666;2023-11-19T09:48:34;21.88;;;10.23;;
56429;SDS011;42332;52.136;20.666;2023-11-19T09:51:00;24.63;;;10.20;;
56429;SDS011;42332;52.136;20.666;2023-11-19T09:53:26;21.67;;;10.32;;
56429;SDS011;42332;52.136;20.666;2023-11-19T09:55:52;22.52;;;9.70;;
56429;SDS011;42332;52.136;20.666;2023-11-19T09:58:18;24.00;;;11.05;;
56429;SDS011;42332;52.136;20.666;2023-11-19T10:00:43;24.90;;;10.10;;
56429;SDS011;42332;52.136;20.666;2023-11-19T10:03:08;20.63;;;9.45;;
56429;SDS011;42332;52.136;20.666;2023-11-19T10:05:37;21.38;;;10.10;;
56429;SDS011;42332;52.136;20.666;2023-11-19T10:08:04;30.25;;;12.48;;
56429;SDS011;42332;52.136;20.666;2023-11-19T10:10:29;24.10;;;11.80;;
56429;SDS011;42332;52.136;20.666;2023-11-19T10:12:55;35.13;;;11.82;;
56429;SDS011;42332;52.136;20.666;2023-11-19T10:15:21;35.88;;;12.57;;
56429;SDS011;42332;52.136;20.666;2023-11-19T10:17:48;25.55;;;10.68;;
56429;SDS011;42332;52.136;20.666;2023-11-19T10:20:14;29.27;;;13.43;;
56429;SDS011;42332;52.136;20.666;2023-11-19T10:22:39;25.15;;;10.75;;
56429;SDS011;42332;52.136;20.666;2023-11-19T10:25:05;24.63;;;11.60;;
56429;SDS011;42332;52.136;20.666;2023-11-19T10:27:43;21.13;;;9.65;;
56429;SDS011;42332;52.136;20.666;2023-11-19T10:30:09;25.95;;;12.25;;
56429;SDS011;42332;52.136;20.666;2023-11-19T10:32:35;24.40;;;10.95;;
56429;SDS011;42332;52.136;20.666;2023-11-19T10:35:04;28.17;;;12.15;;
56429;SDS011;42332;52.136;20.666;2023-11-19T10:37:31;27.92;;;12.40;;
56429;SDS011;42332;52.136;20.666;2023-11-19T10:39:57;29.95;;;11.05;;
56429;SDS011;42332;52.136;20.666;2023-11-19T10:42:22;25.95;;;11.32;;
56429;SDS011;42332;52.136;20.666;2023-11-19T10:44:48;30.30;;;14.10;;
56429;SDS011;42332;52.136;20.666;2023-11-19T10:47:14;33.58;;;13.88;;
56429;SDS011;42332;52.136;20.666;2023-11-19T10:49:40;29.85;;;13.30;;
56429;SDS011;42332;52.136;20.666;2023-11-19T10:52:05;29.13;;;11.75;;
56429;SDS011;42332;52.136;20.666;2023-11-19T10:54:33;21.58;;;9.65;;
56429;SDS011;42332;52.136;20.666;2023-11-19T10:56:59;23.25;;;10.77;;
56429;SDS011;42332;52.136;20.666;2023-11-19T10:59:27;35.45;;;12.35;;
56429;SDS011;42332;52.136;20.666;2023-11-19T11:01:54;26.13;;;10.80;;
56429;SDS011;42332;52.136;20.666;2023-11-19T11:04:24;25.48;;;11.57;;
56429;SDS011;42332;52.136;20.666;2023-11-19T11:06:52;27.88;;;11.63;;
56429;SDS011;42332;52.136;20.666;2023-11-19T11:09:19;26.23;;;12.50;;
56429;SDS011;42332;52.136;20.666;2023-11-19T11:11:47;31.85;;;13.07;;
56429;SDS011;42332;52.136;20.666;2023-11-19T11:14:13;38.08;;;12.23;;
56429;SDS011;42332;52.136;20.666;2023-11-19T11:16:44;32.55;;;11.27;;
56429;SDS011;42332;52.136;20.666;2023-11-19T11:19:11;34.22;;;14.80;;
56429;SDS011;42332;52.136;20.666;2023-11-19T11:21:37;31.33;;;14.32;;
56429;SDS011;42332;52.136;20.666;2023-11-19T11:29:41;33.90;;;11.82;;
56429;SDS011;42332;52.136;20.666;2023-11-19T11:32:25;24.92;;;11.27;;
56429;SDS011;42332;52.136;20.666;2023-11-19T11:37:45;26.50;;;9.38;;
56429;SDS011;42332;52.136;20.666;2023-11-19T11:40:16;26.92;;;8.65;;
56429;SDS011;42332;52.136;20.666;2023-11-19T11:42:43;21.75;;;9.25;;
56429;SDS011;42332;52.136;20.666;2023-11-19T11:45:09;22.65;;;9.95;;
56429;SDS011;42332;52.136;20.666;2023-11-19T11:50:07;30.63;;;12.30;;
56429;SDS011;42332;52.136;20.666;2023-11-19T11:55:23;25.83;;;9.93;;
56429;SDS011;42332;52.136;20.666;2023-11-19T11:57:52;21.20;;;8.93;;
56429;SDS011;42332;52.136;20.666;2023-11-19T12:00:22;22.45;;;9.27;;
56429;SDS011;42332;52.136;20.666;2023-11-19T12:02:51;22.30;;;9.73;;
56429;SDS011;42332;52.136;20.666;2023-11-19T12:05:17;38.10;;;11.13;;
56429;SDS011;42332;52.136;20.666;2023-11-19T12:07:44;27.15;;;9.95;;
56429;SDS011;42332;52.136;20.666;2023-11-19T12:10:24;26.40;;;11.32;;
56429;SDS011;42332;52.136;20.666;2023-11-19T12:12:49;22.23;;;11.55;;
56429;SDS011;42332;52.136;20.666;2023-11-19T12:15:17;25.23;;;11.82;;
56429;SDS011;42332;52.136;20.666;2023-11-19T12:17:50;28.70;;;12.10;;
56429;SDS011;42332;52.136;20.666;2023-11-19T12:20:20;23.52;;;11.60;;
56429;SDS011;42332;52.136;20.666;2023-11-19T12:22:47;24.98;;;11.65;;
56429;SDS011;42332;52.136;20.666;2023-11-19T12:25:14;25.05;;;10.18;;
56429;SDS011;42332;52.136;20.666;2023-11-19T12:27:43;30.30;;;10.85;;
56429;SDS011;42332;52.136;20.666;2023-11-19T12:30:09;25.23;;;10.07;;
56429;SDS011;42332;52.136;20.666;2023-11-19T12:32:38;20.58;;;9.13;;
56429;SDS011;42332;52.136;20.666;2023-11-19T12:35:04;24.20;;;10.10;;
56429;SDS011;42332;52.136;20.666;2023-11-19T12:37:29;24.63;;;9.57;;
56429;SDS011;42332;52.136;20.666;2023-11-19T12:39:56;29.60;;;10.07;;
56429;SDS011;42332;52.136;20.666;2023-11-19T12:42:34;21.70;;;9.70;;
56429;SDS011;42332;52.136;20.666;2023-11-19T12:45:00;28.23;;;10.90;;
56429;SDS011;42332;52.136;20.666;2023-11-19T12:47:25;29.35;;;10.63;;
56429;SDS011;42332;52.136;20.666;2023-11-19T12:49:57;23.65;;;10.70;;
56429;SDS011;42332;52.136;20.666;2023-11-19T12:52:23;33.13;;;10.50;;
56429;SDS011;42332;52.136;20.666;2023-11-19T12:54:48;29.23;;;11.25;;
56429;SDS011;42332;52.136;20.666;2023-11-19T12:57:14;28.00;;;11.45;;
56429;SDS011;42332;52.136;20.666;2023-11-19T12:59:40;22.13;;;9.90;;
56429;SDS011;42332;52.136;20.666;2023-11-19T13:02:05;20.83;;;9.05;;
56429;SDS011;42332;52.136;20.666;2023-11-19T13:04:31;27.30;;;11.57;;
56429;SDS011;42332;52.136;20.666;2023-11-19T13:06:57;26.80;;;10.57;;
56429;SDS011;42332;52.136;20.666;2023-11-19T13:09:26;26.65;;;10.45;;
56429;SDS011;42332;52.136;20.666;2023-11-19T13:11:52;24.35;;;11.18;;
56429;SDS011;42332;52.136;20.666;2023-11-19T13:14:35;20.17;;;8.77;;
56429;SDS011;42332;52.136;20.666;2023-11-19T13:17:02;29.92;;;10.98;;
56429;SDS011;42332;52.136;20.666;2023-11-19T13:19:27;23.63;;;9.80;;
56429;SDS011;42332;52.136;20.666;2023-11-19T13:21:52;20.92;;;9.85;;
56429;SDS011;42332;52.136;20.666;2023-11-19T13:24:18;24.88;;;10.45;;
56429;SDS011;42332;52.136;20.666;2023-11-19T13:26:43;33.08;;;11.60;;
56429;SDS011;42332;52.136;20.666;2023-11-19T13:29:08;23.50;;;10.18;;
56429;SDS011;42332;52.136;20.666;2023-11-19T13:31:36;31.70;;;10.55;;
56429;SDS011;42332;52.136;20.666;2023-11-19T13:34:02;21.50;;;9.65;;
56429;SDS011;42332;52.136;20.666;2023-11-19T13:36:27;32.22;;;10.90;;
56429;SDS011;42332;52.136;20.666;2023-11-19T13:38:52;28.60;;;9.63;;
56429;SDS011;42332;52.136;20.666;2023-11-19T13:41:23;22.65;;;10.88;;
56429;SDS011;42332;52.136;20.666;2023-11-19T13:43:50;22.45;;;9.32;;
56429;SDS011;42332;52.136;20.666;2023-11-19T13:46:15;25.73;;;10.88;;
56429;SDS011;42332;52.136;20.666;2023-11-19T13:48:41;27.60;;;10.02;;
56429;SDS011;42332;52.136;20.666;2023-11-19T13:51:06;29.05;;;10.65;;
56429;SDS011;42332;52.136;20.666;2023-11-19T13:53:31;26.08;;;9.98;;
56429;SDS011;42332;52.136;20.666;2023-11-19T13:55:57;23.02;;;10.15;;
56429;SDS011;42332;52.136;20.666;2023-11-19T13:58:22;29.83;;;10.48;;
56429;SDS011;42332;52.136;20.666;2023-11-19T14:00:48;22.38;;;9.65;;
56429;SDS011;42332;52.136;20.666;2023-11-19T14:03:13;20.05;;;9.25;;
56429;SDS011;42332;52.136;20.666;2023-11-19T14:05:39;23.38;;;9.50;;
56429;SDS011;42332;52.136;20.666;2023-11-19T14:08:06;24.45;;;9.48;;
56429;SDS011;42332;52.136;20.666;2023-11-19T14:10:36;24.48;;;9.85;;
56429;SDS011;42332;52.136;20.666;2023-11-19T14:13:04;35.45;;;10.70;;
56429;SDS011;42332;52.136;20.666;2023-11-19T14:15:29;20.95;;;9.90;;
56429;SDS011;42332;52.136;20.666;2023-11-19T14:17:54;29.92;;;12.90;;
56429;SDS011;42332;52.136;20.666;2023-11-19T14:20:20;28.42;;;10.93;;
56429;SDS011;42332;52.136;20.666;2023-11-19T14:22:45;28.70;;;12.00;;
56429;SDS011;42332;52.136;20.666;2023-11-19T14:25:14;30.08;;;12.13;;